Time;durP1;ratioP1;P1;durP2;ratioP2;P2;SDS_P1;SDS_P2;PMS_P1;PMS_P2;Temp;Humidity;BMP_temperature;BMP_pressure;BME280_temperature;BME280_humidity;BME280_pressure;Samples;Min_cycle;Max_cycle;Signal;HPM_P1;HPM_P2
2022/04/07 00:05:11;;;;;;;5.20;3.40;;;10.10;99.90;;;;;;4949701;28;20220;-77
2022/04/07 00:07:39;;;;;;;5.00;3.63;;;10.10;99.90;;;;;;4958300;28;20226;-77
2022/04/07 00:10:07;;;;;;;6.73;3.80;;;10.10;99.90;;;;;;4956047;28;20220;-77
2022/04/07 00:12:37;;;;;;;4.23;3.30;;;10.10;99.90;;;;;;4948320;28;20202;-78
2022/04/07 00:15:05;;;;;;;5.67;3.30;;;10.10;99.90;;;;;;4969787;28;20204;-76
2022/04/07 00:17:32;;;;;;;3.77;3.10;;;10.00;99.90;;;;;;4959191;28;20237;-77
2022/04/07 00:19:59;;;;;;;3.87;3.00;;;10.10;99.90;;;;;;4945832;29;20203;-76
2022/04/07 00:22:29;;;;;;;3.90;3.17;;;10.10;99.90;;;;;;4952156;28;20205;-77
2022/04/07 00:25:03;;;;;;;4.10;3.10;;;10.10;99.90;;;;;;4949982;28;20560;-78
2022/04/07 00:27:31;;;;;;;6.13;3.10;;;10.00;99.90;;;;;;4949641;28;20687;-78
2022/04/07 00:29:58;;;;;;;3.53;2.87;;;10.00;99.90;;;;;;4950814;28;20679;-78
2022/04/07 00:32:26;;;;;;;3.90;2.60;;;9.90;99.90;;;;;;4948446;28;20209;-76
2022/04/07 00:34:54;;;;;;;3.07;2.30;;;9.90;99.90;;;;;;4949972;29;20210;-77
2022/04/07 00:37:23;;;;;;;2.73;2.47;;;9.90;99.90;;;;;;4947912;28;20222;-76
2022/04/07 00:39:50;;;;;;;4.33;2.10;;;9.90;99.90;;;;;;4951239;28;20205;-76
2022/04/07 00:42:20;;;;;;;3.10;1.97;;;9.90;99.90;;;;;;4945940;28;20668;-78
2022/04/07 00:44:47;;;;;;;4.50;2.33;;;9.90;99.90;;;;;;4949506;28;20197;-78
2022/04/07 00:47:15;;;;;;;2.37;1.97;;;9.90;99.90;;;;;;4946138;28;20225;-76
2022/04/07 00:49:42;;;;;;;2.80;2.23;;;9.90;99.90;;;;;;4963241;28;20205;-77
2022/04/07 00:52:11;;;;;;;3.27;2.33;;;10.00;99.90;;;;;;4944742;28;20193;-77
2022/04/07 00:54:38;;;;;;;3.47;2.30;;;10.00;99.90;;;;;;4962680;28;20201;-77
2022/04/07 00:57:07;;;;;;;3.03;2.43;;;10.00;99.90;;;;;;4949127;28;20767;-77
2022/04/07 00:59:37;;;;;;;3.23;1.87;;;10.00;99.90;;;;;;4949307;28;20209;-77
2022/04/07 01:02:05;;;;;;;2.27;2.07;;;10.00;99.90;;;;;;4959499;28;20202;-77
2022/04/07 01:04:32;;;;;;;1.90;1.70;;;10.10;99.90;;;;;;4948880;28;20201;-75
2022/04/07 01:07:00;;;;;;;3.73;2.07;;;10.10;99.90;;;;;;4961345;28;20225;-77
2022/04/07 01:09:28;;;;;;;3.50;2.00;;;10.10;99.90;;;;;;4961555;28;20213;-77
2022/04/07 01:11:58;;;;;;;3.83;2.10;;;10.10;99.90;;;;;;4959192;28;20213;-76
2022/04/07 01:14:25;;;;;;;2.37;1.70;;;10.10;99.90;;;;;;4946271;28;20209;-77
2022/04/07 01:16:54;;;;;;;1.87;1.60;;;10.10;99.90;;;;;;4948632;28;20224;-76
2022/04/07 01:19:21;;;;;;;2.20;1.80;;;10.10;99.90;;;;;;4948853;28;20198;-77
2022/04/07 01:21:49;;;;;;;1.90;1.70;;;10.00;99.90;;;;;;4961174;28;20209;-76
2022/04/07 01:24:18;;;;;;;3.43;2.00;;;10.10;99.90;;;;;;4962599;28;20212;-77
2022/04/07 01:26:47;;;;;;;4.07;2.00;;;10.10;99.90;;;;;;4963997;28;20213;-78
2022/04/07 01:29:16;;;;;;;4.10;1.90;;;10.10;99.90;;;;;;4949833;28;20204;-77
2022/04/07 01:31:44;;;;;;;4.43;1.83;;;10.10;99.90;;;;;;4954298;28;20198;-77
2022/04/07 01:34:14;;;;;;;5.90;2.17;;;10.10;99.90;;;;;;4950198;28;20209;-77
2022/04/07 01:36:44;;;;;;;3.33;1.50;;;10.10;99.90;;;;;;4953143;28;20193;-77
2022/04/07 01:39:14;;;;;;;3.60;1.90;;;10.10;99.90;;;;;;4949651;28;20221;-77
2022/04/07 01:41:44;;;;;;;4.17;1.83;;;10.10;99.90;;;;;;4968115;28;20233;-77
2022/04/07 01:44:13;;;;;;;5.13;1.70;;;10.10;99.90;;;;;;4953031;28;20213;-77
2022/04/07 01:46:41;;;;;;;2.50;1.40;;;10.10;99.90;;;;;;4950388;28;20237;-77
2022/04/07 01:49:09;;;;;;;7.47;1.97;;;10.10;99.90;;;;;;4952766;29;20225;-78
2022/04/07 01:51:38;;;;;;;3.63;1.83;;;10.10;99.90;;;;;;4968862;28;20224;-77
2022/04/07 01:54:11;;;;;;;2.43;1.50;;;10.20;99.90;;;;;;4951683;29;20222;-77
2022/04/07 01:56:40;;;;;;;3.33;2.07;;;10.20;99.90;;;;;;4967377;28;20194;-77
2022/04/07 01:59:09;;;;;;;3.37;1.80;;;10.20;99.90;;;;;;4944746;28;20207;-76
2022/04/07 02:01:37;;;;;;;1.73;1.40;;;10.20;99.90;;;;;;4951638;29;20556;-77
2022/04/07 02:04:24;;;;;;;3.20;1.43;;;10.30;99.90;;;;;;4951858;29;20190;-76
2022/04/07 02:06:51;;;;;;;1.60;1.50;;;10.30;99.90;;;;;;4970021;28;20228;-75
2022/04/07 02:09:19;;;;;;;2.87;1.70;;;10.30;99.90;;;;;;4969410;28;20210;-77
2022/04/07 02:11:47;;;;;;;5.93;1.70;;;10.30;99.90;;;;;;4958910;28;20216;-77
2022/04/07 02:14:14;;;;;;;2.43;1.83;;;10.30;99.90;;;;;;4954091;28;20209;-77
2022/04/07 02:16:43;;;;;;;2.73;1.67;;;10.30;99.90;;;;;;4954442;28;20201;-77
2022/04/07 02:19:10;;;;;;;7.20;1.93;;;10.30;99.90;;;;;;4946809;28;20206;-77
2022/04/07 02:21:38;;;;;;;4.33;2.00;;;10.30;99.90;;;;;;4954628;28;20656;-77
2022/04/07 02:24:06;;;;;;;2.30;2.07;;;10.30;99.90;;;;;;4951548;28;20211;-78
2022/04/07 02:26:33;;;;;;;2.10;1.90;;;10.20;99.90;;;;;;4951764;28;20213;-77
2022/04/07 02:29:01;;;;;;;3.53;1.50;;;10.20;99.90;;;;;;4948443;28;20206;-77
2022/04/07 02:31:29;;;;;;;3.73;1.80;;;10.10;99.90;;;;;;4953623;28;20202;-77
2022/04/07 02:33:57;;;;;;;2.23;1.70;;;10.10;99.90;;;;;;4952658;29;20218;-76
2022/04/07 02:36:32;;;;;;;2.17;1.80;;;10.10;99.90;;;;;;4947799;28;20194;-77
2022/04/07 02:38:59;;;;;;;3.90;2.00;;;10.20;99.90;;;;;;4951087;28;20209;-77
2022/04/07 02:41:28;;;;;;;2.03;1.70;;;10.20;99.90;;;;;;4954340;28;20212;-77
2022/04/07 02:43:55;;;;;;;3.20;2.00;;;10.20;99.90;;;;;;4955028;28;20772;-77
2022/04/07 02:46:22;;;;;;;5.73;1.83;;;10.20;99.90;;;;;;4957499;28;20233;-77
2022/04/07 02:48:50;;;;;;;2.10;1.90;;;10.20;99.90;;;;;;4948425;28;20592;-77
2022/04/07 02:51:18;;;;;;;4.03;2.03;;;10.10;99.90;;;;;;4954283;28;20202;-77
2022/04/07 02:53:46;;;;;;;4.87;1.97;;;10.10;99.90;;;;;;4967603;28;20206;-77
2022/04/07 02:56:13;;;;;;;4.63;2.10;;;10.10;99.90;;;;;;4966751;28;20217;-77
2022/04/07 02:58:41;;;;;;;2.90;1.83;;;10.10;99.90;;;;;;4952681;29;20213;-75
2022/04/07 03:01:14;;;;;;;3.43;2.20;;;10.10;99.90;;;;;;4949022;28;20222;-77
2022/04/07 03:03:41;;;;;;;2.83;1.97;;;10.10;99.90;;;;;;4952926;29;20206;-76
2022/04/07 03:06:09;;;;;;;3.87;2.20;;;10.10;99.90;;;;;;4950937;29;20310;-77
2022/04/07 03:08:38;;;;;;;2.80;2.00;;;10.00;99.90;;;;;;4948151;29;20221;-78
2022/04/07 03:11:09;;;;;;;2.93;1.80;;;10.00;99.90;;;;;;4952680;28;20198;-77
2022/04/07 03:13:37;;;;;;;2.63;1.90;;;9.90;99.90;;;;;;4954821;28;20198;-77
2022/04/07 03:16:05;;;;;;;2.33;1.93;;;9.90;99.90;;;;;;4950972;29;20199;-77
2022/04/07 03:18:33;;;;;;;5.13;2.00;;;10.00;99.90;;;;;;4948870;28;20230;-76
2022/04/07 03:21:00;;;;;;;3.07;2.10;;;9.90;99.90;;;;;;4949242;29;20210;-77
2022/04/07 03:23:33;;;;;;;2.23;1.90;;;10.00;99.90;;;;;;4966332;28;20599;-77
2022/04/07 03:26:02;;;;;;;3.27;1.83;;;10.00;99.90;;;;;;4949347;28;20198;-77
2022/04/07 03:28:29;;;;;;;3.40;1.80;;;10.00;99.90;;;;;;4951278;28;20221;-77
2022/04/07 03:30:57;;;;;;;2.50;1.80;;;10.10;99.90;;;;;;4945167;28;20201;-76
2022/04/07 03:33:24;;;;;;;4.00;2.00;;;10.10;99.90;;;;;;4949112;28;20578;-77
2022/04/07 03:35:52;;;;;;;3.70;2.00;;;10.10;99.90;;;;;;4948383;28;20225;-77
2022/04/07 03:38:19;;;;;;;3.80;1.67;;;10.10;99.90;;;;;;4950618;28;20226;-77
2022/04/07 03:40:47;;;;;;;3.10;1.77;;;10.10;99.90;;;;;;4946342;28;20193;-77
2022/04/07 03:43:18;;;;;;;3.00;1.60;;;10.10;99.90;;;;;;4950545;28;20216;-76
2022/04/07 03:45:45;;;;;;;2.50;1.60;;;10.10;99.90;;;;;;4948225;28;20205;-77
2022/04/07 03:48:13;;;;;;;4.70;1.60;;;10.20;99.90;;;;;;4950306;28;20245;-76
2022/04/07 03:50:40;;;;;;;3.47;1.77;;;10.20;99.90;;;;;;4949693;28;20209;-76
2022/04/07 03:53:08;;;;;;;1.20;1.10;;;10.30;99.90;;;;;;4949478;28;20198;-77
2022/04/07 03:55:35;;;;;;;1.77;1.30;;;10.30;99.90;;;;;;4948075;28;20206;-75
2022/04/07 03:58:03;;;;;;;3.67;1.80;;;10.30;99.90;;;;;;4951184;28;20214;-77
2022/04/07 04:00:33;;;;;;;5.53;1.50;;;10.30;99.90;;;;;;4951866;28;20201;-74
2022/04/07 04:03:00;;;;;;;3.33;1.27;;;10.40;99.90;;;;;;4946416;28;20198;-75
2022/04/07 04:05:27;;;;;;;5.30;1.60;;;10.40;99.90;;;;;;4944592;28;20205;-75
2022/04/07 04:07:56;;;;;;;3.60;1.23;;;10.40;99.90;;;;;;4942640;28;20241;-74
2022/04/07 04:10:24;;;;;;;2.30;1.30;;;10.40;99.90;;;;;;4947041;28;20576;-75
2022/04/07 04:12:51;;;;;;;3.53;1.10;;;10.50;99.90;;;;;;4944774;28;20205;-75
2022/04/07 04:15:19;;;;;;;3.53;1.23;;;10.50;99.90;;;;;;4947414;28;20579;-75
2022/04/07 04:17:48;;;;;;;3.63;1.03;;;10.50;99.90;;;;;;4950079;28;20224;-76
2022/04/07 04:20:15;;;;;;;6.07;1.77;;;10.50;99.90;;;;;;4946724;28;20217;-74
2022/04/07 04:22:43;;;;;;;3.67;1.27;;;10.50;99.90;;;;;;4950755;28;20217;-75
2022/04/07 04:25:10;;;;;;;6.60;1.40;;;10.50;99.90;;;;;;4950022;28;20205;-76
2022/04/07 04:27:38;;;;;;;2.83;1.27;;;10.50;99.90;;;;;;4950450;28;20218;-75
2022/04/07 04:30:06;;;;;;;4.13;1.60;;;10.60;99.90;;;;;;4944354;28;20202;-75
2022/04/07 04:32:34;;;;;;;4.00;1.47;;;10.50;99.90;;;;;;4949007;28;20201;-75
2022/04/07 04:35:08;;;;;;;2.50;1.30;;;10.60;99.90;;;;;;4961229;28;20206;-76
2022/04/07 04:37:35;;;;;;;3.27;1.67;;;10.60;99.90;;;;;;4944757;28;20217;-73
2022/04/07 04:40:03;;;;;;;3.13;1.13;;;10.60;99.90;;;;;;4943019;28;20554;-74
2022/04/07 04:42:30;;;;;;;4.53;1.80;;;10.60;99.90;;;;;;4948858;28;20206;-74
2022/04/07 04:44:57;;;;;;;2.83;1.37;;;10.60;99.90;;;;;;4943568;28;20548;-75
2022/04/07 04:47:25;;;;;;;6.30;2.10;;;10.60;99.90;;;;;;4945723;28;20217;-75
2022/04/07 04:49:52;;;;;;;4.80;1.87;;;10.60;99.90;;;;;;4946197;28;20206;-75
2022/04/07 04:52:21;;;;;;;8.00;1.77;;;10.60;99.90;;;;;;4947716;28;20684;-75
2022/04/07 04:54:48;;;;;;;3.60;1.70;;;10.60;99.90;;;;;;4959763;28;20198;-76
2022/04/07 04:57:15;;;;;;;6.43;1.90;;;10.60;99.90;;;;;;4947182;29;20220;-76
2022/04/07 04:59:43;;;;;;;3.10;1.73;;;10.50;99.90;;;;;;4945336;28;20198;-75
2022/04/07 05:02:10;;;;;;;3.20;1.97;;;10.40;99.90;;;;;;4945527;29;20209;-75
2022/04/07 05:04:37;;;;;;;3.17;1.70;;;10.20;99.90;;;;;;4945534;28;20213;-74
2022/04/07 05:07:05;;;;;;;3.00;2.07;;;10.20;99.90;;;;;;4958317;28;20222;-75
2022/04/07 05:09:34;;;;;;;3.10;2.10;;;10.10;99.90;;;;;;4966351;28;20201;-74
2022/04/07 05:12:02;;;;;;;2.33;2.13;;;10.10;99.90;;;;;;4951031;28;20202;-73
2022/04/07 05:14:29;;;;;;;3.80;2.53;;;9.90;99.90;;;;;;4949198;29;20197;-75
2022/04/07 05:16:56;;;;;;;4.67;2.73;;;9.90;99.90;;;;;;4943037;28;20228;-76
2022/04/07 05:19:24;;;;;;;4.20;3.33;;;9.80;99.90;;;;;;4949480;28;20190;-75
2022/04/07 05:21:51;;;;;;;4.63;2.70;;;9.80;99.90;;;;;;4949528;28;20210;-75
2022/04/07 05:24:19;;;;;;;5.00;3.47;;;9.80;99.90;;;;;;4949592;28;20206;-76
2022/04/07 05:26:48;;;;;;;5.43;3.63;;;9.90;99.90;;;;;;4953067;28;20578;-75
2022/04/07 05:29:16;;;;;;;4.07;3.13;;;9.90;99.90;;;;;;4949205;28;20217;-75
2022/04/07 05:31:43;;;;;;;4.50;3.63;;;9.80;99.90;;;;;;4949427;28;20213;-76
2022/04/07 05:34:10;;;;;;;6.03;3.53;;;9.80;99.90;;;;;;4950931;28;20533;-75
2022/04/07 05:36:38;;;;;;;3.63;3.33;;;9.80;99.90;;;;;;4956218;28;20198;-74
2022/04/07 05:39:08;;;;;;;4.63;3.40;;;9.80;99.90;;;;;;4947267;28;20189;-74
2022/04/07 05:41:36;;;;;;;3.70;3.07;;;9.80;99.90;;;;;;4960945;28;20201;-73
2022/04/07 05:44:20;;;;;;;4.20;3.23;;;9.80;99.90;;;;;;4950363;28;20201;-74
2022/04/07 05:46:55;;;;;;;6.93;3.53;;;9.90;99.90;;;;;;4963338;28;20202;-74
2022/04/07 05:49:23;;;;;;;4.13;3.03;;;9.90;99.90;;;;;;4963083;28;20240;-74
2022/04/07 05:51:54;;;;;;;3.67;2.90;;;9.90;99.90;;;;;;4954096;29;20691;-74
2022/04/07 05:54:22;;;;;;;4.90;3.00;;;9.90;99.90;;;;;;4947068;28;20193;-74
2022/04/07 05:56:49;;;;;;;3.70;2.37;;;9.90;99.90;;;;;;4941162;29;20201;-75
2022/04/07 05:59:16;;;;;;;3.00;2.50;;;9.90;99.90;;;;;;4940073;28;20203;-73
2022/04/07 06:01:45;;;;;;;3.03;2.17;;;10.00;99.90;;;;;;4943828;28;20205;-74
2022/04/07 06:04:12;;;;;;;2.40;2.20;;;10.10;99.90;;;;;;4947279;29;20198;-76
2022/04/07 06:06:40;;;;;;;3.73;2.40;;;10.10;99.90;;;;;;4968179;28;20206;-77
2022/04/07 06:09:07;;;;;;;2.90;1.83;;;10.20;99.90;;;;;;4943230;28;20213;-76
2022/04/07 06:11:35;;;;;;;2.47;2.13;;;10.20;99.90;;;;;;4949043;28;20215;-76
2022/04/07 06:14:02;;;;;;;2.43;2.23;;;10.30;99.90;;;;;;4955775;29;20278;-80
2022/04/07 06:16:30;;;;;;;3.90;2.27;;;10.30;99.90;;;;;;4958254;28;20193;-77
2022/04/07 06:18:59;;;;;;;3.80;2.63;;;10.30;99.90;;;;;;4949490;28;20216;-77
2022/04/07 06:21:29;;;;;;;2.90;1.90;;;10.30;99.90;;;;;;4948660;29;20213;-77
2022/04/07 06:23:57;;;;;;;2.80;2.27;;;10.30;99.90;;;;;;4965859;28;20218;-76
2022/04/07 06:26:25;;;;;;;2.27;1.87;;;10.30;99.90;;;;;;4945958;28;20857;-76
2022/04/07 06:28:52;;;;;;;3.63;1.73;;;10.20;99.90;;;;;;4948882;28;20221;-75
2022/04/07 06:31:21;;;;;;;2.70;1.60;;;10.10;99.90;;;;;;4969809;28;20216;-77
2022/04/07 06:33:49;;;;;;;2.53;1.47;;;10.10;99.90;;;;;;4952395;28;20216;-77
2022/04/07 06:36:18;;;;;;;1.80;1.47;;;10.10;99.90;;;;;;4949138;28;20218;-76
2022/04/07 06:38:45;;;;;;;3.43;1.63;;;10.10;99.90;;;;;;4942529;28;20214;-78
2022/04/07 06:41:13;;;;;;;3.10;1.60;;;10.10;99.90;;;;;;4948730;29;20213;-76
2022/04/07 06:43:40;;;;;;;3.07;1.63;;;10.10;99.90;;;;;;4939075;28;20221;-73
2022/04/07 06:46:07;;;;;;;4.00;1.77;;;10.50;99.90;;;;;;4952254;28;20214;-74
2022/04/07 06:48:35;;;;;;;3.53;1.60;;;10.40;99.90;;;;;;4950417;28;20229;-76
2022/04/07 06:51:02;;;;;;;1.33;1.13;;;10.40;99.90;;;;;;4947635;29;20213;-73
2022/04/07 06:53:31;;;;;;;1.97;1.10;;;10.40;99.90;;;;;;4944553;29;20204;-73
2022/04/07 06:55:58;;;;;;;1.17;1.07;;;10.50;99.90;;;;;;4949473;29;20210;-73
2022/04/07 06:58:26;;;;;;;1.03;0.93;;;10.30;99.90;;;;;;4951848;28;20227;-75
2022/04/07 07:00:53;;;;;;;1.40;1.10;;;10.20;99.90;;;;;;4947402;28;20203;-73
2022/04/07 07:03:22;;;;;;;1.60;0.80;;;10.20;99.90;;;;;;4948469;29;20202;-75
2022/04/07 07:05:49;;;;;;;2.30;1.20;;;10.10;99.90;;;;;;4959169;28;20226;-75
2022/04/07 07:08:18;;;;;;;1.20;1.10;;;10.10;99.90;;;;;;4951435;28;20637;-77
2022/04/07 07:10:48;;;;;;;1.70;1.20;;;10.10;99.90;;;;;;4951509;29;20568;-75
2022/04/07 07:13:17;;;;;;;2.00;1.53;;;10.20;99.90;;;;;;4952172;29;20197;-73
2022/04/07 07:15:45;;;;;;;2.60;1.80;;;10.10;99.90;;;;;;4951458;28;20214;-74
2022/04/07 07:18:12;;;;;;;2.80;2.30;;;10.30;99.90;;;;;;4964190;28;20732;-74
2022/04/07 07:20:58;;;;;;;3.10;1.97;;;10.40;99.90;;;;;;4949085;28;20222;-75
2022/04/07 07:23:26;;;;;;;2.10;1.90;;;10.20;99.90;;;;;;4953271;28;20201;-75
2022/04/07 07:25:54;;;;;;;1.73;1.63;;;10.10;99.90;;;;;;4952087;28;20216;-74
2022/04/07 07:28:22;;;;;;;2.73;1.90;;;10.10;99.90;;;;;;4964591;28;20226;-74
2022/04/07 07:30:49;;;;;;;2.80;1.83;;;10.10;99.90;;;;;;4951774;28;20206;-74
2022/04/07 07:33:16;;;;;;;2.30;1.33;;;10.00;99.90;;;;;;4947970;28;20241;-75
2022/04/07 07:35:45;;;;;;;1.60;1.47;;;10.00;99.90;;;;;;4949524;28;20205;-74
2022/04/07 07:38:13;;;;;;;2.93;1.43;;;10.00;99.90;;;;;;4948702;28;20288;-74
2022/04/07 07:40:40;;;;;;;2.43;1.47;;;9.90;99.90;;;;;;4948230;28;20209;-74
2022/04/07 07:43:09;;;;;;;2.77;1.53;;;9.90;99.90;;;;;;4948185;29;20429;-74
2022/04/07 07:45:37;;;;;;;3.57;1.63;;;9.90;99.90;;;;;;4949722;28;20191;-77
2022/04/07 07:48:05;;;;;;;2.23;1.70;;;9.80;99.90;;;;;;4950802;28;20232;-78
2022/04/07 07:50:32;;;;;;;2.57;1.30;;;9.70;99.90;;;;;;4949877;29;21184;-76
2022/04/07 07:52:59;;;;;;;3.03;1.80;;;9.70;99.90;;;;;;4967675;28;20205;-76
2022/04/07 07:55:27;;;;;;;1.97;1.33;;;9.70;99.90;;;;;;4947915;29;20212;-77
2022/04/07 07:57:54;;;;;;;2.40;1.30;;;9.70;99.90;;;;;;4950498;28;20237;-77
2022/04/07 08:00:24;;;;;;;2.27;1.43;;;9.70;99.90;;;;;;4951327;29;20197;-77
2022/04/07 08:02:52;;;;;;;1.30;1.20;;;9.60;99.90;;;;;;4949253;29;20190;-77
2022/04/07 08:05:19;;;;;;;2.50;1.20;;;9.70;99.90;;;;;;4947781;28;20206;-74
2022/04/07 08:07:47;;;;;;;1.63;1.53;;;9.60;99.90;;;;;;4949291;28;20221;-78
2022/04/07 08:10:14;;;;;;;4.50;1.53;;;9.60;99.90;;;;;;4952341;28;20226;-76
2022/04/07 08:12:42;;;;;;;1.60;1.40;;;9.60;99.90;;;;;;4948571;29;20209;-76
2022/04/07 08:15:10;;;;;;;2.57;1.70;;;9.60;99.90;;;;;;4944918;29;20205;-77
2022/04/07 08:17:39;;;;;;;2.50;1.67;;;9.60;99.90;;;;;;4948841;29;20220;-77
2022/04/07 08:20:08;;;;;;;3.33;1.40;;;9.60;99.90;;;;;;4951477;28;20202;-77
2022/04/07 08:22:36;;;;;;;2.77;1.50;;;9.60;99.90;;;;;;4948127;28;20201;-77
2022/04/07 08:25:10;;;;;;;2.20;1.50;;;9.70;99.90;;;;;;4949770;28;20201;-76
2022/04/07 08:27:42;;;;;;;3.60;1.70;;;9.70;99.90;;;;;;4940227;29;20240;-75
2022/04/07 08:30:10;;;;;;;1.97;1.00;;;9.70;99.90;;;;;;4958677;28;20229;-77
2022/04/07 08:32:39;;;;;;;2.23;1.30;;;9.80;99.90;;;;;;4950830;28;20210;-76
2022/04/07 08:35:09;;;;;;;1.10;1.00;;;9.80;99.90;;;;;;4949639;29;20196;-77
2022/04/07 08:37:39;;;;;;;1.63;1.13;;;9.90;99.90;;;;;;4948564;28;20228;-77
2022/04/07 08:40:25;;;;;;;1.13;1.03;;;10.00;99.90;;;;;;4946534;28;20229;-74
2022/04/07 08:42:53;;;;;;;2.30;1.20;;;10.00;99.90;;;;;;4942387;28;20217;-76
2022/04/07 08:45:37;;;;;;;2.07;0.90;;;10.00;99.90;;;;;;4951128;28;20201;-76
2022/04/07 08:48:08;;;;;;;0.87;0.80;;;10.10;99.90;;;;;;4963720;28;20233;-76
2022/04/07 08:50:35;;;;;;;1.13;0.87;;;10.10;99.90;;;;;;4952713;28;20692;-77
2022/04/07 08:53:16;;;;;;;1.37;1.00;;;10.20;99.90;;;;;;4949701;28;20206;-77
2022/04/07 08:55:43;;;;;;;1.40;1.30;;;10.10;99.90;;;;;;4946227;29;20190;-77
2022/04/07 08:58:17;;;;;;;1.93;1.20;;;10.10;99.90;;;;;;4945215;29;20221;-77
2022/04/07 09:00:46;;;;;;;2.03;1.23;;;10.10;99.90;;;;;;4950311;28;20185;-77
2022/04/07 09:03:14;;;;;;;1.30;1.20;;;10.20;99.90;;;;;;4951869;28;20202;-77
2022/04/07 09:06:03;;;;;;;1.90;1.17;;;10.20;99.90;;;;;;4949465;28;20256;-77
2022/04/07 09:08:33;;;;;;;2.60;1.30;;;10.20;99.90;;;;;;4943756;28;20232;-77
2022/04/07 09:11:03;;;;;;;3.07;1.40;;;10.20;99.90;;;;;;4949040;28;20228;-77
2022/04/07 09:13:42;;;;;;;2.37;1.20;;;10.30;99.90;;;;;;4967322;28;20560;-77
2022/04/07 09:16:12;;;;;;;1.20;1.10;;;10.30;99.90;;;;;;4945122;29;20194;-77
2022/04/07 09:18:45;;;;;;;1.50;0.90;;;10.40;99.90;;;;;;4948193;28;20233;-77
2022/04/07 09:21:25;;;;;;;1.50;1.10;;;10.40;99.90;;;;;;4944086;29;20573;-77
2022/04/07 09:23:54;;;;;;;1.00;1.00;;;10.50;99.90;;;;;;4944076;28;20205;-75
2022/04/07 09:26:30;;;;;;;1.63;1.30;;;10.60;99.90;;;;;;4965938;28;20212;-74
2022/04/07 09:28:58;;;;;;;0.60;0.53;;;10.60;99.90;;;;;;4943339;29;20213;-75
2022/04/07 09:31:25;;;;;;;0.40;0.40;;;10.10;99.90;;;;;;4949395;28;20642;-74
2022/04/07 09:34:13;;;;;;;0.50;0.23;;;9.20;99.90;;;;;;4952701;28;20200;-74
2022/04/07 09:36:40;;;;;;;1.07;0.60;;;9.10;99.90;;;;;;4948552;28;20715;-74
2022/04/07 09:39:08;;;;;;;0.97;0.60;;;8.90;99.90;;;;;;4943884;28;20210;-73
2022/04/07 09:41:36;;;;;;;0.43;0.40;;;9.00;99.90;;;;;;4945916;28;20205;-74
2022/04/07 09:44:04;;;;;;;3.93;0.40;;;8.80;99.90;;;;;;4943569;28;20201;-75
2022/04/07 09:46:38;;;;;;;0.73;0.50;;;8.70;99.90;;;;;;4946137;28;20225;-74
2022/04/07 09:49:07;;;;;;;0.60;0.40;;;8.70;99.90;;;;;;4957337;28;20217;-74
2022/04/07 09:51:40;;;;;;;0.50;0.47;;;8.60;99.90;;;;;;4964481;28;20234;-75
2022/04/07 09:54:12;;;;;;;1.67;0.70;;;8.60;99.90;;;;;;4957659;28;20217;-75
2022/04/07 09:56:40;;;;;;;1.43;0.50;;;8.70;99.90;;;;;;4970364;28;20228;-75
2022/04/07 09:59:08;;;;;;;1.53;0.67;;;8.70;99.90;;;;;;4945402;29;20202;-75
2022/04/07 10:01:38;;;;;;;1.43;0.80;;;8.70;99.90;;;;;;4957458;28;20224;-74
2022/04/07 10:04:06;;;;;;;2.47;1.10;;;9.10;99.90;;;;;;4955273;28;20569;-74
2022/04/07 10:06:34;;;;;;;3.67;1.87;;;9.30;99.90;;;;;;4951124;28;20206;-73
2022/04/07 10:09:05;;;;;;;3.53;2.40;;;10.20;99.90;;;;;;4945787;28;20221;-75
2022/04/07 10:11:33;;;;;;;5.20;2.90;;;9.60;99.90;;;;;;4944640;29;20203;-74
2022/04/07 10:14:01;;;;;;;3.97;2.83;;;9.40;99.90;;;;;;4949425;29;20700;-75
2022/04/07 10:16:30;;;;;;;4.00;3.20;;;9.20;99.90;;;;;;4950340;28;20210;-75
2022/04/07 10:19:10;;;;;;;3.73;2.27;;;9.30;99.90;;;;;;4949467;28;20229;-75
2022/04/07 10:21:52;;;;;;;3.67;2.20;;;9.40;99.90;;;;;;4951970;29;20205;-74
2022/04/07 10:24:35;;;;;;;2.90;2.20;;;9.40;99.90;;;;;;4953169;29;20217;-74
2022/04/07 10:27:06;;;;;;;2.47;2.00;;;9.50;99.90;;;;;;4948707;29;20688;-78
2022/04/07 10:29:34;;;;;;;3.43;2.50;;;9.50;99.90;;;;;;4951156;29;20193;-78
2022/04/07 10:32:21;;;;;;;2.40;1.93;;;9.50;99.90;;;;;;4952576;29;20233;-77
2022/04/07 10:34:59;;;;;;;2.73;1.77;;;9.40;99.90;;;;;;4948783;28;20202;-76
2022/04/07 10:37:41;;;;;;;1.70;1.53;;;9.40;99.90;;;;;;4950491;29;20217;-76
2022/04/07 10:40:39;;;;;;;2.20;1.73;;;9.50;99.90;;;;;;4963865;28;20198;-77
2022/04/07 10:46:50;;;;;;;2.10;1.60;;;9.60;99.90;;;;;;4965016;28;20185;-76
2022/04/07 10:49:24;;;;;;;1.80;1.50;;;9.90;99.90;;;;;;4944554;29;20217;-76
2022/04/07 10:51:53;;;;;;;2.00;1.57;;;10.00;99.90;;;;;;4947244;28;20232;-76
2022/04/07 10:54:21;;;;;;;1.70;1.60;;;10.10;99.90;;;;;;4951697;29;20214;-77
2022/04/07 10:56:51;;;;;;;2.17;1.63;;;10.30;99.90;;;;;;4947922;29;20205;-78
2022/04/07 10:59:23;;;;;;;3.07;1.50;;;10.40;99.90;;;;;;4948176;29;20194;-77
2022/04/07 11:02:01;;;;;;;4.87;2.17;;;10.60;99.90;;;;;;4948858;28;20263;-76
2022/04/07 11:04:39;;;;;;;4.23;1.63;;;10.50;99.90;;;;;;4944598;29;20206;-77
2022/04/07 11:07:24;;;;;;;4.00;2.37;;;10.70;99.90;;;;;;4951677;29;20221;-77
2022/04/07 11:10:12;;;;;;;2.23;2.03;;;10.80;99.90;;;;;;4964087;28;20202;-76
2022/04/07 11:13:04;;;;;;;4.53;2.17;;;10.80;99.90;;;;;;4946725;29;20687;-77
2022/04/07 11:15:55;;;;;;;2.27;2.00;;;11.20;99.90;;;;;;4953147;29;20205;-76
2022/04/07 11:19:10;;;;;;;2.83;2.13;;;11.40;99.90;;;;;;4954480;28;20226;-77
2022/04/07 11:22:07;;;;;;;2.90;2.10;;;11.70;99.90;;;;;;4934908;29;20202;-77
2022/04/07 11:24:39;;;;;;;2.17;1.80;;;11.70;99.90;;;;;;4916914;28;20249;-77
2022/04/07 11:27:35;;;;;;;2.00;1.80;;;11.60;99.90;;;;;;4937212;28;20708;-77
2022/04/07 11:30:11;;;;;;;2.17;1.97;;;11.50;99.90;;;;;;4933337;28;20229;-77
2022/04/07 11:32:41;;;;;;;2.30;1.70;;;11.70;99.90;;;;;;4945567;29;20210;-76
2022/04/07 11:35:15;;;;;;;1.80;1.57;;;11.60;99.90;;;;;;4960948;28;20206;-76
2022/04/07 11:37:43;;;;;;;2.50;1.60;;;11.70;99.90;;;;;;4942804;28;20232;-77
2022/04/07 11:40:14;;;;;;;1.60;1.50;;;11.90;99.90;;;;;;4928459;29;20202;-78
2022/04/07 11:42:41;;;;;;;1.60;1.50;;;12.20;99.90;;;;;;4937194;28;20214;-78
2022/04/07 11:45:13;;;;;;;1.53;1.43;;;12.40;99.90;;;;;;4943876;28;20202;-76
2022/04/07 11:47:40;;;;;;;2.20;1.70;;;12.50;99.90;;;;;;4927806;29;20218;-77
2022/04/07 11:50:10;;;;;;;5.03;2.07;;;12.60;97.50;;;;;;4929279;29;20207;-76
2022/04/07 11:52:37;;;;;;;1.63;1.53;;;12.80;95.40;;;;;;4926983;29;20206;-77
2022/04/07 11:55:06;;;;;;;2.70;1.30;;;12.90;94.80;;;;;;4942694;28;20206;-77
2022/04/07 11:57:36;;;;;;;2.80;1.33;;;13.10;95.80;;;;;;4941909;29;20230;-77
2022/04/07 12:00:07;;;;;;;2.77;1.40;;;13.20;94.00;;;;;;4919207;29;20234;-77
2022/04/07 12:02:43;;;;;;;3.17;1.63;;;13.40;93.70;;;;;;4927502;29;20198;-78
2022/04/07 12:05:11;;;;;;;2.10;1.50;;;13.50;93.70;;;;;;4925693;29;20210;-77
2022/04/07 12:07:39;;;;;;;2.00;1.40;;;13.40;93.20;;;;;;4927148;29;20224;-77
2022/04/07 12:10:09;;;;;;;1.63;1.53;;;13.20;93.30;;;;;;4925065;29;20442;-77
2022/04/07 12:12:36;;;;;;;2.63;1.40;;;12.90;93.00;;;;;;4927023;29;20214;-77
2022/04/07 12:15:05;;;;;;;3.20;1.70;;;13.10;93.10;;;;;;4945697;28;20206;-77
2022/04/07 12:17:35;;;;;;;7.20;1.80;;;13.30;93.00;;;;;;4941587;28;20226;-77
2022/04/07 12:20:05;;;;;;;3.03;1.77;;;13.50;93.80;;;;;;4924137;28;20202;-77
2022/04/07 12:22:33;;;;;;;2.03;1.63;;;13.70;92.20;;;;;;4939139;28;20676;-77
2022/04/07 12:25:07;;;;;;;2.75;1.40;;;13.40;91.70;;;;;;4941839;28;20213;-78
2022/04/07 12:27:37;;;;;;;2.80;1.50;;;13.10;93.10;;;;;;4917386;29;20689;-77
2022/04/07 12:30:06;;;;;;;1.60;1.38;;;12.80;92.50;;;;;;4927069;29;20206;-77
2022/04/07 12:32:45;;;;;;;3.50;1.60;;;12.60;93.40;;;;;;4926404;29;20226;-77
2022/04/07 12:35:17;;;;;;;5.43;1.80;;;12.00;99.60;;;;;;4924549;29;20572;-77
2022/04/07 12:37:46;;;;;;;5.10;1.90;;;11.10;99.90;;;;;;4922887;29;20226;-77
2022/04/07 12:40:28;;;;;;;7.03;2.10;;;10.40;99.90;;;;;;4940575;28;20587;-77
2022/04/07 12:42:59;;;;;;;5.00;2.30;;;10.10;99.90;;;;;;4928579;29;20206;-77
2022/04/07 12:45:27;;;;;;;5.87;2.23;;;10.00;99.90;;;;;;4922742;29;20736;-77
2022/04/07 12:48:10;;;;;;;5.07;1.80;;;9.70;99.90;;;;;;4923901;29;20229;-77
2022/04/07 12:50:39;;;;;;;5.47;2.33;;;9.60;99.90;;;;;;4923279;29;20218;-77
2022/04/07 12:53:30;;;;;;;3.87;2.50;;;9.70;99.90;;;;;;4917043;29;20227;-77
2022/04/07 12:56:02;;;;;;;4.97;2.60;;;10.00;99.90;;;;;;4926646;29;20597;-77
2022/04/07 12:58:32;;;;;;;4.80;2.30;;;10.00;99.90;;;;;;4921521;29;20225;-77
2022/04/07 13:01:00;;;;;;;4.70;3.10;;;10.10;99.90;;;;;;4922657;29;20214;-77
2022/04/07 13:03:28;;;;;;;4.77;2.63;;;10.10;99.90;;;;;;4925298;28;20592;-77
2022/04/07 13:05:59;;;;;;;4.57;2.80;;;10.10;99.90;;;;;;4930140;29;20207;-77
2022/04/07 13:08:26;;;;;;;6.90;2.80;;;10.40;99.90;;;;;;4922126;29;20214;-77
2022/04/07 13:10:53;;;;;;;6.00;2.60;;;10.80;99.90;;;;;;4921031;29;20218;-77
2022/04/07 13:13:21;;;;;;;5.97;2.53;;;11.20;99.90;;;;;;4941059;28;20238;-77